createdAt,value
2017-05-04T00:00:11.707Z,80.61
2017-05-04T00:00:52.222Z,80.32
2017-05-04T00:01:32.758Z,80.04
2017-05-04T00:02:13.290Z,80.13
2017-05-04T00:02:53.805Z,80.13
2017-05-04T00:03:34.317Z,80.13
2017-05-04T00:04:14.829Z,80.22
2017-05-04T00:04:55.340Z,79.8
2017-05-04T00:05:35.852Z,80.22
2017-05-04T00:06:16.376Z,80.38
2017-05-04T00:06:56.898Z,79.8
2017-05-04T00:07:37.424Z,80.22
2017-05-04T00:08:17.932Z,80.51
2017-05-04T00:08:58.429Z,79.8
2017-05-04T00:09:38.942Z,80.13
2017-05-04T00:10:19.456Z,79.94
2017-05-04T00:10:59.993Z,80.13
2017-05-04T00:11:40.506Z,79.99
2017-05-04T00:12:21.016Z,79.99
2017-05-04T00:13:01.542Z,80.09
2017-05-04T00:13:42.063Z,79.9
2017-05-04T00:14:22.579Z,79.99
2017-05-04T00:15:03.094Z,79.52
2017-05-04T00:15:43.625Z,79.43
2017-05-04T00:16:24.126Z,79.9
2017-05-04T00:17:04.647Z,79.8
2017-05-04T00:17:45.158Z,79.9
2017-05-04T00:18:25.674Z,79.71
2017-05-04T00:19:06.179Z,79.8
2017-05-04T00:19:46.695Z,79.9
2017-05-04T00:20:27.214Z,79.9
2017-05-04T00:21:07.728Z,79.94
2017-05-04T00:21:48.245Z,79.56
2017-05-04T00:22:28.766Z,79.61
2017-05-04T00:23:09.283Z,79.27
2017-05-04T00:23:49.795Z,79.75
2017-05-04T00:24:30.300Z,79.17
2017-05-04T00:25:10.819Z,79.36
2017-05-04T00:25:51.325Z,79.46
2017-05-04T00:26:31.853Z,78.89
2017-05-04T00:27:12.385Z,79.27
2017-05-04T00:27:52.880Z,79.08
2017-05-04T00:28:33.411Z,78.89
2017-05-04T00:29:13.877Z,78.99
2017-05-04T00:29:54.384Z,79.08
2017-05-04T00:30:34.887Z,78.89
2017-05-04T00:31:15.403Z,78.89
2017-05-04T00:31:55.933Z,79.17
2017-05-04T00:32:36.430Z,78.99
2017-05-04T00:33:16.967Z,79.17
2017-05-04T00:33:57.483Z,78.6
2017-05-04T00:34:37.991Z,78.41
2017-05-04T00:35:18.443Z,79.08
2017-05-04T00:35:58.950Z,78.7
2017-05-04T00:36:39.477Z,79.17
2017-05-04T00:37:19.962Z,78.41
2017-05-04T00:38:00.437Z,79.27
2017-05-04T00:38:40.944Z,79.65
2017-05-04T00:39:21.446Z,79.08
2017-05-04T00:40:01.934Z,79.36
2017-05-04T00:40:42.456Z,78.7
2017-05-04T00:41:22.892Z,79.08
2017-05-04T00:42:03.398Z,79.27
2017-05-04T00:42:43.903Z,79.65
2017-05-04T00:43:24.385Z,79.56
2017-05-04T00:44:04.889Z,79.08
2017-05-04T00:44:45.388Z,79.65
2017-05-04T00:45:25.909Z,79.17
2017-05-04T00:46:06.414Z,79.08
2017-05-04T00:46:46.871Z,79.27
2017-05-04T00:47:27.381Z,78.89
2017-05-04T00:48:07.895Z,79.08
2017-05-04T00:48:48.414Z,79.36
2017-05-04T00:49:28.921Z,79.17
2017-05-04T00:50:09.401Z,78.89
2017-05-04T00:50:49.923Z,78.89
2017-05-04T00:51:30.393Z,79.46
2017-05-04T00:52:10.919Z,79.27
2017-05-04T00:52:51.414Z,79.56
2017-05-04T00:53:31.904Z,80.13
2017-05-04T00:54:12.417Z,80.13
2017-05-04T00:54:52.899Z,80.04
2017-05-04T00:55:33.422Z,80.13
2017-05-04T00:56:13.889Z,80.57
2017-05-04T00:56:54.356Z,80.61
2017-05-04T00:57:34.866Z,80.13
2017-05-04T00:58:15.350Z,80.32
2017-05-04T00:58:55.852Z,80.38
2017-05-04T00:59:36.324Z,80.9
2017-05-04T01:00:16.851Z,80.51
2017-05-04T01:00:57.350Z,80.51
2017-05-04T01:01:37.801Z,80.13
2017-05-04T01:02:18.297Z,80.13
2017-05-04T01:02:58.814Z,80.04
2017-05-04T01:03:39.318Z,80.13
2017-05-04T01:04:19.806Z,79.56
2017-05-04T01:05:00.317Z,80.13
2017-05-04T01:05:40.794Z,79.56
2017-05-04T01:06:21.309Z,80.04
2017-05-04T01:07:01.780Z,79.94
2017-05-04T01:07:42.290Z,79.75
2017-05-04T01:08:22.783Z,79.85
2017-05-04T01:09:03.289Z,80.41
2017-05-04T01:09:43.796Z,80.7
2017-05-04T01:10:24.399Z,80.51
2017-05-04T01:11:04.780Z,80.99
2017-05-04T01:11:45.241Z,80.7
2017-05-04T01:12:25.755Z,81.47
2017-05-04T01:13:06.225Z,81.09
2017-05-04T01:13:46.741Z,81.27
2017-05-04T01:14:27.253Z,81.09
2017-05-04T01:15:07.773Z,81.56
2017-05-04T01:15:48.280Z,81.85
2017-05-04T01:16:28.776Z,81.56
2017-05-04T01:17:09.279Z,81.76
2017-05-04T01:17:49.741Z,81.56
2017-05-04T01:18:30.238Z,81.76
2017-05-04T01:19:10.702Z,81.85
2017-05-04T01:19:51.235Z,81.27
2017-05-04T01:20:31.699Z,81.27
2017-05-04T01:21:12.222Z,81.47
2017-05-04T01:21:52.742Z,81.76
2017-05-04T01:22:33.244Z,81.18
2017-05-04T01:23:13.764Z,81.47
2017-05-04T01:23:54.313Z,81.18
2017-05-04T01:24:34.769Z,81.27
2017-05-04T01:25:15.286Z,81.81
2017-05-04T01:25:55.798Z,82.57
2017-05-04T01:26:36.324Z,82.29
2017-05-04T01:27:16.840Z,82.09
2017-05-04T01:27:57.346Z,82.32
2017-05-04T01:28:37.853Z,81.47
2017-05-04T01:29:18.397Z,81.66
2017-05-04T01:29:58.895Z,81.95
2017-05-04T01:30:39.393Z,81.47
2017-05-04T01:31:19.916Z,81.47
2017-05-04T01:32:00.414Z,81.95
2017-05-04T01:32:40.900Z,81.66
2017-05-04T01:33:21.412Z,81.47
2017-05-04T01:34:01.952Z,80.99
2017-05-04T01:34:42.434Z,81.81
2017-05-04T01:35:22.929Z,81.81
2017-05-04T01:36:03.457Z,81.81
2017-05-04T01:36:43.902Z,82.38
2017-05-04T01:37:24.408Z,82.19
2017-05-04T01:38:04.920Z,81.52
2017-05-04T01:38:45.395Z,81.71
2017-05-04T01:39:25.906Z,81.56
2017-05-04T01:40:06.436Z,81.37
2017-05-04T01:40:46.926Z,81.37
2017-05-04T01:41:27.437Z,81.37
2017-05-04T01:42:07.971Z,81.09
2017-05-04T01:42:48.491Z,81.43
2017-05-04T01:43:28.994Z,81.04
2017-05-04T01:44:09.514Z,81.81
2017-05-04T01:44:50.014Z,81.52
2017-05-04T01:45:30.531Z,82
2017-05-04T01:46:11.037Z,82.19
2017-05-04T01:46:51.544Z,82.29
2017-05-04T01:47:32.054Z,81.9
2017-05-04T01:48:12.558Z,82.09
2017-05-04T01:48:53.080Z,82.48
2017-05-04T01:49:33.610Z,82.09
2017-05-04T01:50:14.185Z,82.95
2017-05-04T01:50:54.684Z,83.05
2017-05-04T01:51:35.189Z,82.95
2017-05-04T01:52:15.715Z,83.34
2017-05-04T01:52:56.242Z,82.76
2017-05-04T01:53:36.748Z,82.19
2017-05-04T01:54:17.257Z,83.05
2017-05-04T01:54:57.776Z,83.58
2017-05-04T01:55:38.284Z,83.87
2017-05-04T01:56:18.808Z,84.44
2017-05-04T01:56:59.314Z,84.34
2017-05-04T01:57:39.824Z,84.34
2017-05-04T01:58:20.333Z,84.44
2017-05-04T01:59:00.867Z,84.72
2017-05-04T01:59:41.360Z,84.25
2017-05-04T02:00:21.887Z,84.16
2017-05-04T02:01:02.382Z,84.44
2017-05-04T02:01:42.918Z,84.25
2017-05-04T02:02:23.434Z,84.34
2017-05-04T02:03:03.978Z,84.06
2017-05-04T02:03:44.476Z,83.96
2017-05-04T02:04:24.998Z,84.06
2017-05-04T02:05:05.538Z,83.77
2017-05-04T02:05:46.043Z,84.06
2017-05-04T02:06:26.553Z,84.16
2017-05-04T02:07:07.098Z,83.67
2017-05-04T02:07:47.569Z,84.06
2017-05-04T02:08:28.083Z,84.16
2017-05-04T02:09:08.573Z,84.72
2017-05-04T02:09:49.041Z,84.06
2017-05-04T02:10:29.568Z,84.44
2017-05-04T02:11:10.093Z,83.67
2017-05-04T02:11:50.596Z,83.29
2017-05-04T02:12:31.103Z,83.58
2017-05-04T02:13:11.629Z,83.67
2017-05-04T02:13:52.135Z,83.11
2017-05-04T02:14:32.653Z,83.67
2017-05-04T02:15:13.188Z,83.77
2017-05-04T02:15:53.680Z,83.96
2017-05-04T02:16:34.201Z,83.2
2017-05-04T02:17:14.702Z,83.39
2017-05-04T02:17:55.196Z,82.82
2017-05-04T02:18:35.676Z,83.2
2017-05-04T02:19:16.206Z,83.29
2017-05-04T02:19:56.689Z,83.58
2017-05-04T02:20:37.209Z,83.67
2017-05-04T02:21:17.725Z,83.77
2017-05-04T02:21:58.210Z,83.54
2017-05-04T02:22:38.707Z,83.87
2017-05-04T02:23:19.220Z,83.67
2017-05-04T02:23:59.732Z,83.77
2017-05-04T02:24:40.234Z,83.01
2017-05-04T02:25:20.708Z,83.11
2017-05-04T02:26:01.216Z,83.39
2017-05-04T02:26:41.678Z,82.91
2017-05-04T02:27:22.158Z,82.91
2017-05-04T02:28:02.659Z,82.24
2017-05-04T02:28:43.140Z,82.34
2017-05-04T02:29:23.656Z,82.15
2017-05-04T02:30:04.151Z,82.34
2017-05-04T02:30:44.636Z,82.43
2017-05-04T02:31:25.086Z,82.06
2017-05-04T02:32:05.575Z,81.67
2017-05-04T02:32:46.098Z,81.77
2017-05-04T02:33:26.574Z,81.01
2017-05-04T02:34:07.056Z,81.1
2017-05-04T02:34:47.547Z,81.2
2017-05-04T02:35:28.021Z,81.2
2017-05-04T02:36:08.516Z,80.62
2017-05-04T02:36:49.029Z,80.72
2017-05-04T02:37:29.547Z,80.72
2017-05-04T02:38:10.053Z,80.62
2017-05-04T02:38:50.622Z,81.29
2017-05-04T02:39:31.117Z,80.91
2017-05-04T02:40:11.622Z,80.72
2017-05-04T02:40:52.122Z,81.29
2017-05-04T02:41:32.620Z,80.53
2017-05-04T02:42:13.118Z,80.62
2017-05-04T02:42:53.613Z,80.81
2017-05-04T02:43:34.128Z,81.01
2017-05-04T02:44:14.653Z,80.43
2017-05-04T02:44:55.179Z,80.43
2017-05-04T02:45:35.670Z,80.24
2017-05-04T02:46:16.175Z,80.43
2017-05-04T02:46:56.693Z,80.81
2017-05-04T02:47:37.195Z,80.72
2017-05-04T02:48:17.719Z,80.33
2017-05-04T02:48:58.238Z,80.43
2017-05-04T02:49:38.789Z,80.33
2017-05-04T02:50:19.265Z,79.67
2017-05-04T02:50:59.805Z,79.86
2017-05-04T02:51:40.300Z,79.96
2017-05-04T02:52:20.811Z,80.53
2017-05-04T02:53:01.322Z,80.72
2017-05-04T02:53:41.833Z,80.62
2017-05-04T02:54:22.377Z,80.43
2017-05-04T02:55:02.881Z,80.43
2017-05-04T02:55:43.341Z,80.43
2017-05-04T02:56:23.827Z,80.24
2017-05-04T02:57:04.333Z,80.62
2017-05-04T02:57:44.860Z,80.43
2017-05-04T02:58:25.390Z,79.96
2017-05-04T02:59:05.867Z,80.33
2017-05-04T02:59:46.384Z,79.86
2017-05-04T03:00:26.921Z,80.05
2017-05-04T03:01:07.431Z,80.43
2017-05-04T03:01:47.950Z,80.24
2017-05-04T03:02:28.462Z,81.06
2017-05-04T03:03:08.945Z,81.06
2017-05-04T03:03:49.476Z,81.29
2017-05-04T03:04:29.983Z,81.25
2017-05-04T03:05:10.495Z,81.48
2017-05-04T03:05:50.973Z,81.2
2017-05-04T03:06:31.480Z,81.25
2017-05-04T03:07:11.990Z,80.87
2017-05-04T03:07:52.498Z,81.92
2017-05-04T03:08:33.017Z,81.54
2017-05-04T03:09:13.528Z,81.67
2017-05-04T03:09:54.031Z,81.01
2017-05-04T03:10:34.543Z,81.38
2017-05-04T03:11:15.055Z,81.67
2017-05-04T03:11:55.573Z,81.77
2017-05-04T03:12:36.065Z,81.77
2017-05-04T03:13:16.561Z,81.82
2017-05-04T03:13:57.059Z,81.63
2017-05-04T03:14:37.569Z,81.54
2017-05-04T03:15:18.044Z,81.73
2017-05-04T03:15:58.535Z,81.73
2017-05-04T03:16:39.010Z,81.73
2017-05-04T03:17:19.500Z,81.73
2017-05-04T03:17:59.980Z,81.44
2017-05-04T03:18:40.498Z,81.06
2017-05-04T03:19:21.015Z,80.96
2017-05-04T03:20:01.539Z,81.44
2017-05-04T03:20:42.050Z,80.96
2017-05-04T03:21:22.537Z,81.35
2017-05-04T03:22:03.041Z,81.44
2017-05-04T03:22:43.559Z,81.25
2017-05-04T03:23:24.078Z,81.06
2017-05-04T03:24:04.590Z,81.44
2017-05-04T03:24:45.129Z,81.06
2017-05-04T03:25:25.625Z,81.44
2017-05-04T03:26:06.142Z,81.15
2017-05-04T03:26:46.629Z,80.77
2017-05-04T03:27:27.158Z,81.15
2017-05-04T03:28:07.665Z,80.68
2017-05-04T03:28:48.186Z,80.49
2017-05-04T03:29:28.706Z,80.68
2017-05-04T03:30:09.218Z,80.39
2017-05-04T03:30:49.748Z,80.58
2017-05-04T03:31:30.274Z,80.68
2017-05-04T03:32:10.809Z,81.15
2017-05-04T03:32:51.326Z,82.11
2017-05-04T03:33:31.826Z,81.63
2017-05-04T03:34:12.332Z,81.44
2017-05-04T03:34:52.817Z,80.96
2017-05-04T03:35:33.278Z,81.63
2017-05-04T03:36:13.768Z,80.96
2017-05-04T03:36:54.295Z,80.96
2017-05-04T03:37:34.760Z,80.96
2017-05-04T03:38:15.242Z,81.25
2017-05-04T03:38:55.750Z,81.15
2017-05-04T03:39:36.271Z,81.15
2017-05-04T03:40:16.801Z,81.44
2017-05-04T03:40:57.291Z,81.54
2017-05-04T03:41:37.787Z,81.25
2017-05-04T03:42:18.282Z,81.35
2017-05-04T03:42:58.779Z,81.25
2017-05-04T03:43:39.289Z,81.25
2017-05-04T03:44:19.793Z,80.58
2017-05-04T03:45:00.260Z,80.58
2017-05-04T03:45:40.780Z,80.72
2017-05-04T03:46:21.271Z,80.39
2017-05-04T03:47:01.748Z,80.87
2017-05-04T03:47:42.225Z,80.77
2017-05-04T03:48:22.741Z,80.62
2017-05-04T03:49:03.253Z,80.39
2017-05-04T03:49:43.734Z,80.68
2017-05-04T03:50:24.234Z,80.43
2017-05-04T03:51:04.725Z,80.24
2017-05-04T03:51:45.275Z,79.67
2017-05-04T03:52:25.783Z,79.77
2017-05-04T03:53:06.235Z,79.82
2017-05-04T03:53:46.731Z,80.11
2017-05-04T03:54:27.209Z,80.11
2017-05-04T03:55:07.765Z,79.57
2017-05-04T03:55:48.242Z,79.77
2017-05-04T03:56:28.728Z,79.91
2017-05-04T03:57:09.229Z,80.05
2017-05-04T03:57:49.702Z,79.96
2017-05-04T03:58:30.189Z,80.15
2017-05-04T03:59:10.692Z,79.38
2017-05-04T03:59:51.176Z,79.15
2017-05-04T04:00:31.695Z,79
2017-05-04T04:01:12.190Z,79.38
2017-05-04T04:01:52.718Z,79.19
2017-05-04T04:02:33.178Z,79.28
2017-05-04T04:03:13.707Z,79.38
2017-05-04T04:03:54.207Z,79
2017-05-04T04:04:34.775Z,78.86
2017-05-04T04:05:15.219Z,79.72
2017-05-04T04:05:55.722Z,79.44
2017-05-04T04:06:36.239Z,79.25
2017-05-04T04:07:16.718Z,79.35
2017-05-04T04:07:57.239Z,79.35
2017-05-04T04:08:37.695Z,79.44
2017-05-04T04:09:18.209Z,79.72
2017-05-04T04:09:58.686Z,79.06
2017-05-04T04:10:39.193Z,79.28
2017-05-04T04:11:19.720Z,79.28
2017-05-04T04:12:00.195Z,79.19
2017-05-04T04:12:40.708Z,79.28
2017-05-04T04:13:21.149Z,78.91
2017-05-04T04:14:01.667Z,78.43
2017-05-04T04:14:42.165Z,78.43
2017-05-04T04:15:22.637Z,78.52
2017-05-04T04:16:03.101Z,78.72
2017-05-04T04:16:43.600Z,79.1
2017-05-04T04:17:24.149Z,78.81
2017-05-04T04:18:04.590Z,78.91
2017-05-04T04:18:45.107Z,79.1
2017-05-04T04:19:25.566Z,78.81
2017-05-04T04:20:06.039Z,78.91
2017-05-04T04:20:46.545Z,79.1
2017-05-04T04:21:27.069Z,79.19
2017-05-04T04:22:07.544Z,79.25
2017-05-04T04:22:48.085Z,79.38
2017-05-04T04:23:28.550Z,79.38
2017-05-04T04:24:09.031Z,79.48
2017-05-04T04:24:49.549Z,79.86
2017-05-04T04:25:30.009Z,79.96
2017-05-04T04:26:10.509Z,79.67
2017-05-04T04:26:51.005Z,79.19
2017-05-04T04:27:31.486Z,79.19
2017-05-04T04:28:11.987Z,79.19
2017-05-04T04:28:52.444Z,78.81
2017-05-04T04:29:32.917Z,79.28
2017-05-04T04:30:13.434Z,79
2017-05-04T04:30:53.920Z,78.81
2017-05-04T04:31:34.470Z,79.1
2017-05-04T04:32:14.955Z,78.81
2017-05-04T04:32:55.414Z,78.52
2017-05-04T04:33:35.915Z,79
2017-05-04T04:34:16.414Z,79.1
2017-05-04T04:34:56.921Z,78.91
2017-05-04T04:35:37.373Z,78.33
2017-05-04T04:36:17.879Z,78.33
2017-05-04T04:36:58.385Z,78.05
2017-05-04T04:37:38.840Z,77.86
2017-05-04T04:38:19.368Z,77.95
2017-05-04T04:38:59.810Z,78.23
2017-05-04T04:39:40.346Z,78.23
2017-05-04T04:40:20.770Z,77.95
2017-05-04T04:41:01.258Z,77.95
2017-05-04T04:41:41.780Z,78.05
2017-05-04T04:42:22.321Z,77.95
2017-05-04T04:43:02.792Z,78.23
2017-05-04T04:43:43.257Z,78.23
2017-05-04T04:44:23.729Z,78.14
2017-05-04T04:45:04.184Z,78.05
2017-05-04T04:45:44.714Z,77.86
2017-05-04T04:46:25.179Z,77.47
2017-05-04T04:47:05.652Z,77.47
2017-05-04T04:47:46.196Z,77.19
2017-05-04T04:48:26.659Z,76.71
2017-05-04T04:49:07.170Z,76.52
2017-05-04T04:49:47.662Z,76.46
2017-05-04T04:50:28.184Z,76.08
2017-05-04T04:51:08.636Z,76.08
2017-05-04T04:51:49.107Z,75.42
2017-05-04T04:52:29.597Z,75.13
2017-05-04T04:53:10.092Z,74.74
2017-05-04T04:53:50.594Z,74.93
2017-05-04T04:54:31.080Z,75.42
2017-05-04T04:55:11.611Z,75.42
2017-05-04T04:55:52.097Z,75.13
2017-05-04T04:56:32.604Z,74.84
2017-05-04T04:57:13.100Z,74.46
2017-05-04T04:57:53.565Z,74.74
2017-05-04T04:58:34.043Z,74.08
2017-05-04T04:59:14.554Z,74.08
2017-05-04T04:59:55.056Z,74.27
2017-05-04T05:00:35.584Z,74.08
2017-05-04T05:01:16.129Z,74.46
2017-05-04T05:01:56.579Z,73.98
2017-05-04T05:02:37.082Z,74.08
2017-05-04T05:03:17.527Z,74.17
2017-05-04T05:03:57.979Z,74.08
2017-05-04T05:04:38.482Z,74.17
2017-05-04T05:05:18.988Z,74.27
2017-05-04T05:05:59.477Z,73.88
2017-05-04T05:06:39.950Z,73.98
2017-05-04T05:07:20.481Z,73.88
2017-05-04T05:08:00.966Z,73.5
2017-05-04T05:08:41.496Z,74.08
2017-05-04T05:09:21.978Z,73.63
2017-05-04T05:10:02.441Z,73.35
2017-05-04T05:10:42.941Z,73.44
2017-05-04T05:11:23.597Z,72.78
2017-05-04T05:12:04.016Z,73.54
2017-05-04T05:12:44.506Z,73.25
2017-05-04T05:13:25.024Z,73.07
2017-05-04T05:14:05.702Z,72.97
2017-05-04T05:14:46.124Z,73.73
2017-05-04T05:15:26.622Z,73.83
2017-05-04T05:16:07.093Z,73.63
2017-05-04T05:16:47.572Z,73.73
2017-05-04T05:17:28.143Z,73.63
2017-05-04T05:18:08.878Z,74.11
2017-05-04T05:18:49.407Z,74.02
2017-05-04T05:19:29.914Z,74.11
2017-05-04T05:20:10.426Z,73.44
2017-05-04T05:20:50.891Z,74.3
2017-05-04T05:21:31.352Z,74.88
2017-05-04T05:22:11.861Z,74.78
2017-05-04T05:22:52.415Z,74.78
2017-05-04T05:23:32.841Z,74.11
2017-05-04T05:24:13.344Z,74.4
2017-05-04T05:24:53.871Z,74.4
2017-05-04T05:25:34.332Z,74.21
2017-05-04T05:26:14.832Z,74.3
2017-05-04T05:26:55.372Z,74.78
2017-05-04T05:27:35.784Z,75.07
2017-05-04T05:28:16.296Z,75.83
2017-05-04T05:28:56.778Z,75.74
2017-05-04T05:29:37.268Z,75.45
2017-05-04T05:30:17.748Z,74.98
2017-05-04T05:30:58.252Z,75.64
2017-05-04T05:31:38.719Z,75.93
2017-05-04T05:32:19.237Z,75.74
2017-05-04T05:33:00.471Z,76.03
2017-05-04T05:33:40.970Z,75.83
2017-05-04T05:34:21.402Z,77.84
2017-05-04T05:35:01.908Z,76.21
2017-05-04T05:35:42.416Z,82.52
2017-05-04T05:36:22.961Z,82.08
2017-05-04T05:37:03.407Z,83.42
2017-05-04T05:37:44.037Z,84.76
2017-05-04T05:38:24.441Z,82.56
2017-05-04T05:39:04.903Z,79.22
2017-05-04T05:39:45.375Z,74.98
2017-05-04T05:40:25.899Z,73.96
2017-05-04T05:41:06.924Z,73.92
2017-05-04T05:41:47.451Z,75.83
2017-05-04T05:42:27.897Z,74.73
2017-05-04T05:43:08.417Z,74.05
2017-05-04T05:43:48.905Z,73.96
2017-05-04T05:44:29.504Z,73.29
2017-05-04T05:45:09.991Z,72.24
2017-05-04T05:45:50.679Z,72.05
2017-05-04T05:46:31.007Z,71.95
2017-05-04T05:47:12.254Z,70.81
2017-05-04T05:47:52.836Z,71.67
2017-05-04T05:48:33.303Z,70.9
2017-05-04T05:50:31.644Z,71.86
2017-05-04T05:51:12.154Z,71.89
2017-05-04T05:51:52.668Z,72.18
2017-05-04T05:52:33.189Z,72.85
2017-05-04T05:53:13.721Z,72.56
2017-05-04T05:53:54.228Z,72.08
2017-05-04T05:54:34.742Z,72.18
2017-05-04T05:55:15.327Z,72.08
2017-05-04T05:55:55.836Z,71.61
2017-05-04T05:56:36.328Z,72.08
2017-05-04T05:57:16.849Z,71.19
2017-05-04T05:57:57.359Z,71.09
2017-05-04T05:58:37.905Z,71.42
2017-05-04T05:59:18.362Z,71.03
2017-05-04T05:59:58.865Z,71.13
2017-05-04T06:00:39.364Z,71.42
2017-05-04T06:01:19.822Z,70.42
2017-05-04T06:02:00.770Z,70.33
2017-05-04T06:02:41.251Z,71.38
2017-05-04T06:03:21.725Z,71.28
2017-05-04T06:04:02.298Z,72.14
2017-05-04T06:04:42.691Z,72.2
2017-05-04T06:05:23.282Z,73.83
2017-05-04T06:06:03.764Z,73.44
2017-05-04T06:06:44.412Z,73.83
2017-05-04T06:07:25.509Z,73.44
2017-05-04T06:08:05.779Z,74.78
2017-05-04T06:08:46.286Z,78.22
2017-05-04T06:09:27.238Z,82.84
2017-05-04T06:10:07.743Z,81.7
2017-05-04T06:10:48.455Z,79.17
2017-05-04T06:11:29.789Z,80.17
2017-05-04T06:12:09.786Z,76.98
2017-05-04T06:12:50.372Z,76.6
2017-05-04T06:13:30.897Z,75.93
2017-05-04T06:14:11.393Z,79.5
2017-05-04T06:14:53.186Z,83.33
2017-05-04T06:15:33.418Z,84.38
2017-05-04T06:16:13.906Z,84.66
2017-05-04T06:16:54.354Z,85.14
2017-05-04T06:17:34.865Z,89.92
2017-05-04T06:18:15.625Z,88.1
2017-05-04T06:18:56.094Z,88.77
2017-05-04T06:19:36.605Z,91.68
2017-05-04T06:20:17.145Z,91.39
2017-05-04T06:20:57.644Z,89.29
2017-05-04T06:21:38.161Z,84.85
2017-05-04T06:22:18.752Z,82.94
2017-05-04T06:22:59.179Z,84.19
2017-05-04T06:23:39.706Z,80.93
2017-05-04T06:24:20.231Z,79.5
2017-05-04T06:25:00.746Z,82.18
2017-05-04T06:25:41.258Z,82.75
2017-05-04T06:26:21.775Z,84.95
2017-05-04T06:27:02.300Z,90.82
2017-05-04T06:27:42.824Z,89.44
2017-05-04T06:28:23.333Z,91.02
2017-05-04T06:29:03.840Z,86
2017-05-04T06:29:44.383Z,88.1
2017-05-04T06:30:24.898Z,93.02
2017-05-04T06:31:05.420Z,88.68
2017-05-04T06:31:45.993Z,89.92
2017-05-04T06:32:26.544Z,91.35
2017-05-04T06:33:07.098Z,86.29
2017-05-04T06:33:47.615Z,92.35
2017-05-04T06:34:28.130Z,95.03
2017-05-04T06:35:08.649Z,93.88
2017-05-04T06:35:49.169Z,86.57
2017-05-04T06:36:29.694Z,83.33
2017-05-04T06:37:10.234Z,83.13
2017-05-04T06:37:50.748Z,88.62
2017-05-04T06:38:31.262Z,91.39
2017-05-04T06:39:11.786Z,93.4
2017-05-04T06:39:52.307Z,88.72
2017-05-04T06:40:32.901Z,87
2017-05-04T06:41:13.572Z,85.66
2017-05-04T06:41:54.108Z,84.7
2017-05-04T06:42:34.836Z,83.65
2017-05-04T06:43:15.534Z,82.22
2017-05-04T06:43:55.817Z,83.65
2017-05-04T06:44:36.274Z,84.52
2017-05-04T06:45:16.784Z,83.46
2017-05-04T06:45:57.284Z,82.79
2017-05-04T06:46:37.744Z,82.41
2017-05-04T06:47:18.240Z,83.5
2017-05-04T06:47:58.764Z,84.46
2017-05-04T06:48:39.238Z,83.79
2017-05-04T06:49:19.783Z,83.89
2017-05-04T06:50:00.289Z,79.96
2017-05-04T06:50:40.756Z,83.79
2017-05-04T06:51:21.297Z,84.55
2017-05-04T06:52:01.818Z,88.57
2017-05-04T06:52:42.334Z,89.81
2017-05-04T06:53:22.848Z,88.09
2017-05-04T06:54:03.363Z,84.75
2017-05-04T06:54:43.879Z,82.22
2017-05-04T06:55:24.398Z,82.64
2017-05-04T06:56:04.918Z,81.07
2017-05-04T06:56:45.439Z,81.68
2017-05-04T06:57:25.992Z,84.08
2017-05-04T06:58:06.494Z,85.13
2017-05-04T06:58:47.036Z,87.23
2017-05-04T06:59:27.581Z,83.98
2017-05-04T07:00:08.099Z,84.55
2017-05-04T07:00:48.616Z,83.98
2017-05-04T07:01:29.124Z,84.17
2017-05-04T07:02:09.636Z,84.36
2017-05-04T07:02:50.154Z,85.13
2017-05-04T07:03:30.688Z,83.4
2017-05-04T07:04:11.212Z,82.26
2017-05-04T07:04:51.702Z,82.54
2017-05-04T07:05:32.207Z,81.02
2017-05-04T07:06:12.732Z,83.06
2017-05-04T07:08:31.147Z,81.21
2017-05-04T07:09:11.696Z,80.06
2017-05-04T07:09:52.211Z,85.22
2017-05-04T07:10:32.738Z,83.69
2017-05-04T07:11:13.293Z,82.17
2017-05-04T07:11:53.769Z,81.02
2017-05-04T07:12:34.306Z,83.4
2017-05-04T07:13:14.849Z,86.18
2017-05-04T07:13:55.376Z,86.18
2017-05-04T07:14:35.902Z,86.47
2017-05-04T07:15:16.440Z,87.23
2017-05-04T07:15:56.976Z,86.57
2017-05-04T07:16:37.475Z,86.08
2017-05-04T07:17:18.008Z,81.97
2017-05-04T07:17:58.528Z,79.2
2017-05-04T07:18:39.097Z,78.43
2017-05-04T07:19:19.723Z,80.06
2017-05-04T07:20:00.207Z,88.38
2017-05-04T07:20:40.726Z,85.32
2017-05-04T07:21:21.348Z,82.26
2017-05-04T07:22:02.206Z,86.22
2017-05-04T07:22:42.724Z,86.66
2017-05-04T07:23:23.753Z,84.59
2017-05-04T07:24:04.430Z,79.49
2017-05-04T07:26:22.831Z,88.81
2017-05-04T07:27:03.354Z,89.95
2017-05-04T07:27:43.887Z,89.09
2017-05-04T07:28:24.401Z,88.52
2017-05-04T07:29:04.926Z,83.93
2017-05-04T07:29:45.447Z,83.16
2017-05-04T07:30:25.983Z,85.27
2017-05-04T07:31:06.512Z,82.49
2017-05-04T07:31:47.040Z,80
2017-05-04T07:32:27.566Z,82.97
2017-05-04T07:33:08.082Z,81.82
2017-05-04T07:33:48.616Z,78.76
2017-05-04T07:34:29.137Z,78.76
2017-05-04T07:35:09.643Z,81.63
2017-05-04T07:35:50.167Z,82.2
2017-05-04T07:36:30.669Z,83.36
2017-05-04T07:37:11.274Z,80.19
2017-05-04T07:37:51.785Z,78.19
2017-05-04T07:38:32.531Z,76.75
2017-05-04T07:39:12.913Z,81.57
2017-05-04T07:39:53.410Z,79.85
2017-05-04T07:40:33.930Z,83.49
2017-05-04T07:41:14.451Z,80.04
2017-05-04T07:43:02.453Z,83.3
2017-05-04T07:43:42.970Z,83.87
2017-05-04T07:44:23.487Z,85.12
2017-05-04T07:45:04.001Z,84.74
2017-05-04T07:45:44.538Z,82.34
2017-05-04T07:46:25.057Z,85.79
2017-05-04T07:47:05.569Z,86.51
2017-05-04T07:47:46.087Z,87.03
2017-05-04T07:48:26.598Z,86.9
2017-05-04T07:49:07.130Z,86.8
2017-05-04T07:49:47.656Z,83.73
2017-05-04T07:50:28.169Z,81.63
2017-05-04T07:51:08.713Z,79.66
2017-05-04T07:51:49.250Z,79.47
2017-05-04T07:52:29.774Z,80.1
2017-05-04T07:53:10.318Z,78.51
2017-05-04T07:53:50.846Z,76.79
2017-05-04T07:54:31.357Z,74.97
2017-05-04T07:55:11.874Z,76.69
2017-05-04T07:55:52.428Z,78.32
2017-05-04T07:56:32.947Z,80.38
2017-05-04T07:57:13.472Z,80.87
2017-05-04T07:57:53.985Z,79.24
2017-05-04T07:58:34.526Z,77.51
2017-05-04T07:59:15.042Z,76.46
2017-05-04T07:59:55.572Z,76.18
2017-05-04T08:00:36.105Z,76.4
2017-05-04T08:01:16.626Z,76.08
2017-05-04T08:01:57.141Z,78.76
2017-05-04T08:02:37.662Z,77.08
2017-05-04T08:03:18.158Z,75.98
2017-05-04T08:03:58.706Z,75.16
2017-05-04T08:04:39.231Z,76.37
2017-05-04T08:05:19.772Z,76.84
2017-05-04T08:06:00.311Z,76.84
2017-05-04T08:06:40.830Z,77.42
2017-05-04T08:07:21.373Z,76.56
2017-05-04T08:08:01.892Z,76.18
2017-05-04T08:08:42.414Z,78.76
2017-05-04T08:09:23.070Z,77.9
2017-05-04T08:10:03.615Z,76.84
2017-05-04T08:10:44.107Z,76.08
2017-05-04T08:11:24.627Z,78.57
2017-05-04T08:12:05.148Z,80.19
2017-05-04T08:12:45.677Z,80.38
2017-05-04T08:13:26.197Z,80.44
2017-05-04T08:14:06.710Z,78.47
2017-05-04T08:14:47.234Z,80.67
2017-05-04T08:16:45.543Z,83.45
2017-05-04T08:17:26.056Z,83.16
2017-05-04T08:18:06.575Z,79.85
2017-05-04T08:18:47.119Z,79.08
2017-05-04T08:19:27.629Z,81.67
2017-05-04T08:20:08.153Z,79.47
2017-05-04T08:20:48.662Z,78.61
2017-05-04T08:21:29.186Z,81.2
2017-05-04T08:22:09.709Z,80.81
2017-05-04T08:22:50.237Z,82.34
2017-05-04T08:23:30.754Z,80.24
2017-05-04T08:24:11.280Z,79.7
2017-05-04T08:24:51.829Z,76.89
2017-05-04T08:25:32.329Z,79.57
2017-05-04T08:26:12.863Z,84.58
2017-05-04T08:26:53.365Z,85.54
2017-05-04T08:27:33.919Z,87.03
2017-05-04T08:28:14.444Z,85.12
2017-05-04T08:28:54.959Z,81.48
2017-05-04T08:29:35.489Z,81.57
2017-05-04T08:30:15.997Z,83.68
2017-05-04T08:30:56.517Z,85.31
2017-05-04T08:31:37.036Z,84.55
2017-05-04T08:32:17.552Z,84.26
2017-05-04T08:32:58.074Z,81.67
2017-05-04T08:33:38.597Z,81.77
2017-05-04T08:34:19.125Z,82.43
2017-05-04T08:34:59.687Z,85.21
2017-05-04T08:35:40.172Z,84.74
2017-05-04T08:36:20.702Z,87.03
2017-05-04T08:37:01.216Z,88.66
2017-05-04T08:37:41.748Z,86.84
2017-05-04T08:38:22.278Z,83.3
2017-05-04T08:39:02.797Z,82.24
2017-05-04T08:39:43.316Z,83.39
2017-05-04T08:40:23.841Z,83.3
2017-05-04T08:41:04.364Z,81.43
2017-05-04T08:41:44.895Z,78.27
2017-05-04T08:42:25.434Z,76.64
2017-05-04T08:43:05.975Z,77.11
2017-05-04T08:43:46.499Z,75.68
2017-05-04T08:44:27.012Z,81.33
2017-05-04T08:45:07.533Z,78.55
2017-05-04T08:45:48.061Z,76.92
2017-05-04T08:46:28.580Z,79.22
2017-05-04T08:47:09.099Z,80.66
2017-05-04T08:47:49.622Z,80.37
2017-05-04T08:48:30.158Z,83.15
2017-05-04T08:49:10.674Z,84.49
2017-05-04T08:49:51.202Z,84.39
2017-05-04T08:50:31.723Z,82.57